Alcorn State University, Mississippi
Current Conditions -  °F | °C
As of 1:55 AM on Monday 22 Dec 2014 (Local Time) from KHEZ Reporting Station
Overcast Overcast  
Wind Chill: 11°   Ceiling: 600
Heat Index: 11°   Visibility: 9mi
Dew Point:   Wind: 7mph
Humidity: 88%   Direction: 160°SSE
Pressure: 29.9"   Gusts: NA
Location:  31.8192°N, 91.1912°W
Report Text: KHEZ 220755Z AUTO 16006KT 9SM OVC006 11/09 A2990 RMK AO1
Loading
Personal Weather Stations






























Interactive Weather Map New forecast layout! Learn more

10-Day Weather Forecast

Advertisements
Track Severe Weather on mobile